ヨハネスブルグ の空港の天気 - METARとTAF

ヨハネスブルグ/O.R.タンボ国際空港 ( FAOR / JNB ) - 南アフリカ ヨハネスブルグ
飛行場実況気象(Metar)
観測時間11/15 18:00 SAST (11/15 16:00 UTC)
風向・風速北北西 4m/s
視程10km以上
天気現象
全天の4割程度の雲 雲底高度 2130m
気温29℃
湿度22%
気圧1022hPa
METARFAOR 151600Z 33008KT 9999 SCT070TCU 29/05 Q1022 NOSIG RMK DIST CB TO SE AND SW 25KM MOV N 10KM/H
過去の天気等 Google飛行場航空写真 Wunderground天気予報

過去48時間のMETAR

飛行場予報(TAF)
発表時間: 11/15 12:00 SAST (11/15 10:00 UTC)
予報対象時間: 15日14時 SAST ~ 16日20時 SAST
風向・風速不定 2m/s
視程10km以上
なし
15日15時 SAST ~ 15日23時 SAST に一時的に
少しの塔状積雲 雲底高度 1520m
15日18時 SAST ~ 15日23時 SAST に 確率 40% で一時的に
風向・風速東北東 8m/s 瞬間風速 13m/s
視程4500m
天気現象雷雨
少しの積乱雲 雲底高度 1370m
15日23時 SAST ~ 16日1時 SAST に徐々に
風向・風速北 5m/s
16日10時 SAST ~ 16日12時 SAST に徐々に
風向・風速不定 2m/s
16日14時 SAST ~ 16日16時 SAST に一時的に
少しの塔状積雲 雲底高度 1370m
16日14時 SAST ~ 16日20時 SAST に 確率 30% で一時的に
天気現象弱い雷雨
少しの積乱雲 雲底高度 1370m
TAF FAOR 151000Z 1512/1618 VRB03KT CAVOK
TEMPO 1513/1521 FEW050TCU
PROB40 TEMPO 1516/1521 07015G25KT 4500 TSRA FEW045CB
BECMG 1521/1523 01010KT
BECMG 1608/1610 VRB03KT
TEMPO 1612/1614 FEW045TCU
PROB30 TEMPO 1612/1618 -TSRA FEW045CB TX32/1513Z TN16/1603Z